Annandale, Virginia
Current Conditions -  °F | °C
As of 12:58 PM on Friday 19 Dec 2014 (Local Time) from KDAA Reporting Station
Overcast Overcast  
Wind Chill: -1°   Ceiling: 3600
Heat Index:   Visibility: 10mi
Dew Point: -5°   Wind: 14mph
Humidity: 53%   Direction: 320°NW
Pressure: 30.16"   Gusts: NA
Location:  38.83°N, 77.19°W
Report Text: KDAA 191758Z AUTO 32012KT 10SM OVC036 04/M05 A3016 RMK AO2 SLP217 T00371051 10038 20017 58012
Loading
Personal Weather Stations






























Interactive Weather Map New forecast layout! Learn more

10-Day Weather Forecast

Advertisements
Track Severe Weather on mobile